sensor_id;sensor_type;location;lat;lon;timestamp;temperature;humidity
53152;DHT22;39234;53.158;6.322;2023-04-24T00:02:16;10.20;99.90
53152;DHT22;39234;53.158;6.322;2023-04-24T00:04:42;10.30;99.90
53152;DHT22;39234;53.158;6.322;2023-04-24T00:07:11;10.30;99.90
53152;DHT22;39234;53.158;6.322;2023-04-24T00:09:36;10.30;99.90
53152;DHT22;39234;53.158;6.322;2023-04-24T00:12:02;10.20;99.90
53152;DHT22;39234;53.158;6.322;2023-04-24T00:14:31;10.40;99.90
53152;DHT22;39234;53.158;6.322;2023-04-24T00:16:57;10.30;99.90
53152;DHT22;39234;53.158;6.322;2023-04-24T00:19:23;10.20;99.90
53152;DHT22;39234;53.158;6.322;2023-04-24T00:21:49;10.20;99.90
53152;DHT22;39234;53.158;6.322;2023-04-24T00:24:16;10.20;99.90
53152;DHT22;39234;53.158;6.322;2023-04-24T00:26:42;10.20;99.90
53152;DHT22;39234;53.158;6.322;2023-04-24T00:29:08;10.10;99.90
53152;DHT22;39234;53.158;6.322;2023-04-24T00:31:34;9.90;99.90
53152;DHT22;39234;53.158;6.322;2023-04-24T00:34:02;9.90;99.90
53152;DHT22;39234;53.158;6.322;2023-04-24T00:36:28;10.00;99.90
53152;DHT22;39234;53.158;6.322;2023-04-24T00:38:55;10.80;99.90
53152;DHT22;39234;53.158;6.322;2023-04-24T00:41:21;9.80;99.90
53152;DHT22;39234;53.158;6.322;2023-04-24T00:43:47;9.80;99.90
53152;DHT22;39234;53.158;6.322;2023-04-24T00:46:14;9.90;99.90
53152;DHT22;39234;53.158;6.322;2023-04-24T00:48:40;9.90;99.90
53152;DHT22;39234;53.158;6.322;2023-04-24T00:51:06;9.60;99.90
53152;DHT22;39234;53.158;6.322;2023-04-24T00:53:32;9.80;99.90
53152;DHT22;39234;53.158;6.322;2023-04-24T00:55:58;9.90;99.90
53152;DHT22;39234;53.158;6.322;2023-04-24T00:58:25;9.80;99.90
53152;DHT22;39234;53.158;6.322;2023-04-24T01:00:53;9.80;99.90
53152;DHT22;39234;53.158;6.322;2023-04-24T01:03:22;10.00;99.90
53152;DHT22;39234;53.158;6.322;2023-04-24T01:05:50;9.90;99.90
53152;DHT22;39234;53.158;6.322;2023-04-24T01:08:16;9.80;99.90
53152;DHT22;39234;53.158;6.322;2023-04-24T01:10:43;10.10;99.90
53152;DHT22;39234;53.158;6.322;2023-04-24T01:13:10;9.80;99.90
53152;DHT22;39234;53.158;6.322;2023-04-24T01:15:36;9.70;99.90
53152;DHT22;39234;53.158;6.322;2023-04-24T01:18:02;9.90;99.90
53152;DHT22;39234;53.158;6.322;2023-04-24T01:20:29;10.50;99.90
53152;DHT22;39234;53.158;6.322;2023-04-24T01:22:55;9.70;99.90
53152;DHT22;39234;53.158;6.322;2023-04-24T01:25:24;9.60;99.90
53152;DHT22;39234;53.158;6.322;2023-04-24T01:27:51;9.60;99.90
53152;DHT22;39234;53.158;6.322;2023-04-24T01:30:18;9.70;99.90
53152;DHT22;39234;53.158;6.322;2023-04-24T01:32:44;9.60;99.90
53152;DHT22;39234;53.158;6.322;2023-04-24T01:35:10;9.80;99.90
53152;DHT22;39234;53.158;6.322;2023-04-24T01:37:36;9.50;99.90
53152;DHT22;39234;53.158;6.322;2023-04-24T01:40:06;9.70;99.90
53152;DHT22;39234;53.158;6.322;2023-04-24T01:42:32;9.60;99.90
53152;DHT22;39234;53.158;6.322;2023-04-24T01:44:59;9.60;99.90
53152;DHT22;39234;53.158;6.322;2023-04-24T01:47:25;9.50;99.90
53152;DHT22;39234;53.158;6.322;2023-04-24T01:49:51;10.10;99.90
53152;DHT22;39234;53.158;6.322;2023-04-24T01:52:17;9.40;99.90
53152;DHT22;39234;53.158;6.322;2023-04-24T01:54:44;9.70;99.90
53152;DHT22;39234;53.158;6.322;2023-04-24T01:57:10;8.20;99.90
53152;DHT22;39234;53.158;6.322;2023-04-24T01:59:36;9.50;99.90
53152;DHT22;39234;53.158;6.322;2023-04-24T02:02:03;9.40;99.90
53152;DHT22;39234;53.158;6.322;2023-04-24T02:04:29;9.40;99.90
53152;DHT22;39234;53.158;6.322;2023-04-24T02:06:54;9.60;99.90
53152;DHT22;39234;53.158;6.322;2023-04-24T02:09:20;9.40;99.90
53152;DHT22;39234;53.158;6.322;2023-04-24T02:11:46;9.60;99.90
53152;DHT22;39234;53.158;6.322;2023-04-24T02:14:12;9.60;99.90
53152;DHT22;39234;53.158;6.322;2023-04-24T02:16:38;9.60;99.90
53152;DHT22;39234;53.158;6.322;2023-04-24T02:19:04;9.70;99.90
53152;DHT22;39234;53.158;6.322;2023-04-24T02:21:29;9.40;99.90
53152;DHT22;39234;53.158;6.322;2023-04-24T02:23:57;9.70;99.90
53152;DHT22;39234;53.158;6.322;2023-04-24T02:26:23;9.50;99.90
53152;DHT22;39234;53.158;6.322;2023-04-24T02:28:48;9.60;99.90
53152;DHT22;39234;53.158;6.322;2023-04-24T02:31:14;9.70;99.90
53152;DHT22;39234;53.158;6.322;2023-04-24T02:33:40;9.70;99.90
53152;DHT22;39234;53.158;6.322;2023-04-24T02:36:06;9.70;99.90
53152;DHT22;39234;53.158;6.322;2023-04-24T02:38:32;9.70;99.90
53152;DHT22;39234;53.158;6.322;2023-04-24T02:40:58;9.60;99.90
53152;DHT22;39234;53.158;6.322;2023-04-24T02:43:23;9.50;99.90
53152;DHT22;39234;53.158;6.322;2023-04-24T02:45:49;9.50;99.90
53152;DHT22;39234;53.158;6.322;2023-04-24T02:48:15;9.60;99.90
53152;DHT22;39234;53.158;6.322;2023-04-24T02:50:42;9.40;99.90
53152;DHT22;39234;53.158;6.322;2023-04-24T02:53:09;9.80;99.90
53152;DHT22;39234;53.158;6.322;2023-04-24T02:55:34;9.60;99.90
53152;DHT22;39234;53.158;6.322;2023-04-24T02:58:01;9.50;99.90
53152;DHT22;39234;53.158;6.322;2023-04-24T03:00:26;9.60;99.90
53152;DHT22;39234;53.158;6.322;2023-04-24T03:02:52;9.60;99.90
53152;DHT22;39234;53.158;6.322;2023-04-24T03:05:18;9.60;99.90
53152;DHT22;39234;53.158;6.322;2023-04-24T03:07:44;9.50;99.90
53152;DHT22;39234;53.158;6.322;2023-04-24T03:10:11;9.70;99.90
53152;DHT22;39234;53.158;6.322;2023-04-24T03:12:36;9.70;99.90
53152;DHT22;39234;53.158;6.322;2023-04-24T03:15:02;9.70;99.90
53152;DHT22;39234;53.158;6.322;2023-04-24T03:17:28;9.70;99.90
53152;DHT22;39234;53.158;6.322;2023-04-24T03:19:54;9.70;99.90
53152;DHT22;39234;53.158;6.322;2023-04-24T03:22:19;9.70;99.90
53152;DHT22;39234;53.158;6.322;2023-04-24T03:24:45;9.70;99.90
53152;DHT22;39234;53.158;6.322;2023-04-24T03:27:11;9.80;99.90
53152;DHT22;39234;53.158;6.322;2023-04-24T03:29:37;9.70;99.90
53152;DHT22;39234;53.158;6.322;2023-04-24T03:32:03;9.70;99.90
53152;DHT22;39234;53.158;6.322;2023-04-24T03:34:28;9.80;99.90
53152;DHT22;39234;53.158;6.322;2023-04-24T03:36:54;9.60;99.90
53152;DHT22;39234;53.158;6.322;2023-04-24T03:39:20;9.80;99.90
53152;DHT22;39234;53.158;6.322;2023-04-24T03:41:46;9.90;99.90
53152;DHT22;39234;53.158;6.322;2023-04-24T03:44:11;9.70;99.90
53152;DHT22;39234;53.158;6.322;2023-04-24T03:46:37;9.60;99.90
53152;DHT22;39234;53.158;6.322;2023-04-24T03:49:03;9.80;99.90
53152;DHT22;39234;53.158;6.322;2023-04-24T03:51:28;10.50;99.90
53152;DHT22;39234;53.158;6.322;2023-04-24T03:53:55;9.70;99.90
53152;DHT22;39234;53.158;6.322;2023-04-24T03:56:21;9.70;99.90
53152;DHT22;39234;53.158;6.322;2023-04-24T03:58:47;9.70;99.90
53152;DHT22;39234;53.158;6.322;2023-04-24T04:01:13;9.80;99.90
53152;DHT22;39234;53.158;6.322;2023-04-24T04:03:38;9.80;99.90
53152;DHT22;39234;53.158;6.322;2023-04-24T04:06:04;9.70;99.90
53152;DHT22;39234;53.158;6.322;2023-04-24T04:08:30;9.80;99.90
53152;DHT22;39234;53.158;6.322;2023-04-24T04:10:56;9.70;99.90
53152;DHT22;39234;53.158;6.322;2023-04-24T04:13:21;9.80;99.90
53152;DHT22;39234;53.158;6.322;2023-04-24T04:15:47;9.70;99.90
53152;DHT22;39234;53.158;6.322;2023-04-24T04:18:13;9.60;99.90
53152;DHT22;39234;53.158;6.322;2023-04-24T04:20:39;9.90;99.90
53152;DHT22;39234;53.158;6.322;2023-04-24T04:23:04;9.80;99.90
53152;DHT22;39234;53.158;6.322;2023-04-24T04:25:30;9.80;99.90
53152;DHT22;39234;53.158;6.322;2023-04-24T04:27:56;9.90;99.90
53152;DHT22;39234;53.158;6.322;2023-04-24T04:30:23;9.90;99.90
53152;DHT22;39234;53.158;6.322;2023-04-24T04:32:49;9.60;99.90
53152;DHT22;39234;53.158;6.322;2023-04-24T04:35:15;10.00;99.90
53152;DHT22;39234;53.158;6.322;2023-04-24T04:37:41;9.90;99.90
53152;DHT22;39234;53.158;6.322;2023-04-24T04:40:07;9.90;99.90
53152;DHT22;39234;53.158;6.322;2023-04-24T04:42:35;9.80;99.90
53152;DHT22;39234;53.158;6.322;2023-04-24T04:45:00;10.00;99.90
53152;DHT22;39234;53.158;6.322;2023-04-24T04:47:26;9.80;99.90
53152;DHT22;39234;53.158;6.322;2023-04-24T04:49:54;10.00;99.90
53152;DHT22;39234;53.158;6.322;2023-04-24T04:52:20;9.80;99.90
53152;DHT22;39234;53.158;6.322;2023-04-24T04:54:50;9.70;99.90
53152;DHT22;39234;53.158;6.322;2023-04-24T04:57:16;9.90;99.90
53152;DHT22;39234;53.158;6.322;2023-04-24T04:59:41;9.80;99.90
53152;DHT22;39234;53.158;6.322;2023-04-24T05:02:07;9.60;99.90
53152;DHT22;39234;53.158;6.322;2023-04-24T05:04:33;9.60;99.90
53152;DHT22;39234;53.158;6.322;2023-04-24T05:06:59;9.70;99.90
53152;DHT22;39234;53.158;6.322;2023-04-24T05:09:25;9.70;99.90
53152;DHT22;39234;53.158;6.322;2023-04-24T05:11:53;9.80;99.90
53152;DHT22;39234;53.158;6.322;2023-04-24T05:14:18;9.70;99.90
53152;DHT22;39234;53.158;6.322;2023-04-24T05:16:44;9.80;99.90
53152;DHT22;39234;53.158;6.322;2023-04-24T05:19:10;9.60;99.90
53152;DHT22;39234;53.158;6.322;2023-04-24T05:21:37;9.70;99.90
53152;DHT22;39234;53.158;6.322;2023-04-24T05:24:05;9.70;99.90
53152;DHT22;39234;53.158;6.322;2023-04-24T05:26:30;9.70;99.90
53152;DHT22;39234;53.158;6.322;2023-04-24T05:28:56;9.80;99.90
53152;DHT22;39234;53.158;6.322;2023-04-24T05:31:22;9.70;99.90
53152;DHT22;39234;53.158;6.322;2023-04-24T05:33:48;9.80;99.90
53152;DHT22;39234;53.158;6.322;2023-04-24T05:36:14;9.50;99.90
53152;DHT22;39234;53.158;6.322;2023-04-24T05:38:40;9.80;99.90
53152;DHT22;39234;53.158;6.322;2023-04-24T05:41:06;9.80;99.90
53152;DHT22;39234;53.158;6.322;2023-04-24T05:43:31;9.70;99.90
53152;DHT22;39234;53.158;6.322;2023-04-24T05:45:57;9.80;99.90
53152;DHT22;39234;53.158;6.322;2023-04-24T05:48:23;9.60;99.90
53152;DHT22;39234;53.158;6.322;2023-04-24T05:50:49;9.70;99.90
53152;DHT22;39234;53.158;6.322;2023-04-24T05:53:15;9.70;99.90
53152;DHT22;39234;53.158;6.322;2023-04-24T05:55:41;9.50;99.90
53152;DHT22;39234;53.158;6.322;2023-04-24T05:58:06;9.60;99.90
53152;DHT22;39234;53.158;6.322;2023-04-24T06:00:32;9.70;99.90
53152;DHT22;39234;53.158;6.322;2023-04-24T06:03:00;9.60;99.90
53152;DHT22;39234;53.158;6.322;2023-04-24T06:05:25;9.60;99.90
53152;DHT22;39234;53.158;6.322;2023-04-24T06:07:52;9.60;99.90
53152;DHT22;39234;53.158;6.322;2023-04-24T06:10:18;9.70;99.90
53152;DHT22;39234;53.158;6.322;2023-04-24T06:12:43;9.80;99.90
53152;DHT22;39234;53.158;6.322;2023-04-24T06:15:09;9.60;99.90
53152;DHT22;39234;53.158;6.322;2023-04-24T06:17:35;9.80;99.90
53152;DHT22;39234;53.158;6.322;2023-04-24T06:20:03;9.60;99.90
53152;DHT22;39234;53.158;6.322;2023-04-24T06:22:30;9.50;99.90
53152;DHT22;39234;53.158;6.322;2023-04-24T06:24:56;9.80;99.90
53152;DHT22;39234;53.158;6.322;2023-04-24T06:27:22;11.30;99.90
53152;DHT22;39234;53.158;6.322;2023-04-24T06:29:48;9.80;99.90
53152;DHT22;39234;53.158;6.322;2023-04-24T06:32:22;9.60;99.90
53152;DHT22;39234;53.158;6.322;2023-04-24T06:34:48;9.70;99.90
53152;DHT22;39234;53.158;6.322;2023-04-24T06:37:14;9.60;99.90
53152;DHT22;39234;53.158;6.322;2023-04-24T06:39:41;9.80;99.90
53152;DHT22;39234;53.158;6.322;2023-04-24T06:42:07;9.80;99.90
53152;DHT22;39234;53.158;6.322;2023-04-24T06:44:35;9.70;99.90
53152;DHT22;39234;53.158;6.322;2023-04-24T06:47:09;9.80;99.90
53152;DHT22;39234;53.158;6.322;2023-04-24T06:49:36;9.70;99.90
53152;DHT22;39234;53.158;6.322;2023-04-24T06:52:02;9.80;99.90
53152;DHT22;39234;53.158;6.322;2023-04-24T06:54:29;9.70;99.90
53152;DHT22;39234;53.158;6.322;2023-04-24T06:56:55;9.90;99.90
53152;DHT22;39234;53.158;6.322;2023-04-24T06:59:26;9.60;99.90
53152;DHT22;39234;53.158;6.322;2023-04-24T07:01:52;9.80;99.90
53152;DHT22;39234;53.158;6.322;2023-04-24T07:04:18;9.90;99.90
53152;DHT22;39234;53.158;6.322;2023-04-24T07:06:45;9.60;99.90
53152;DHT22;39234;53.158;6.322;2023-04-24T07:09:11;9.60;99.90
53152;DHT22;39234;53.158;6.322;2023-04-24T07:11:39;9.70;99.90
53152;DHT22;39234;53.158;6.322;2023-04-24T07:14:06;9.50;99.90
53152;DHT22;39234;53.158;6.322;2023-04-24T07:16:32;9.60;99.90
53152;DHT22;39234;53.158;6.322;2023-04-24T07:18:58;9.70;99.90
53152;DHT22;39234;53.158;6.322;2023-04-24T07:21:24;9.60;99.90
53152;DHT22;39234;53.158;6.322;2023-04-24T07:23:51;11.70;99.90
53152;DHT22;39234;53.158;6.322;2023-04-24T07:26:17;9.40;99.90
53152;DHT22;39234;53.158;6.322;2023-04-24T07:28:43;9.50;99.90
53152;DHT22;39234;53.158;6.322;2023-04-24T07:31:09;9.50;99.90
53152;DHT22;39234;53.158;6.322;2023-04-24T07:33:35;9.30;99.90
53152;DHT22;39234;53.158;6.322;2023-04-24T07:36:01;9.60;99.90
53152;DHT22;39234;53.158;6.322;2023-04-24T07:38:29;9.50;99.90
53152;DHT22;39234;53.158;6.322;2023-04-24T07:40:55;9.60;99.90
53152;DHT22;39234;53.158;6.322;2023-04-24T07:43:21;9.60;99.90
53152;DHT22;39234;53.158;6.322;2023-04-24T07:45:47;9.40;99.90
53152;DHT22;39234;53.158;6.322;2023-04-24T07:48:13;9.50;99.90
53152;DHT22;39234;53.158;6.322;2023-04-24T07:50:42;9.20;99.90
53152;DHT22;39234;53.158;6.322;2023-04-24T07:53:08;9.20;99.90
53152;DHT22;39234;53.158;6.322;2023-04-24T07:55:33;9.30;99.90
53152;DHT22;39234;53.158;6.322;2023-04-24T07:57:59;9.30;99.90
53152;DHT22;39234;53.158;6.322;2023-04-24T08:00:25;9.10;99.90
53152;DHT22;39234;53.158;6.322;2023-04-24T08:02:51;9.20;99.90
53152;DHT22;39234;53.158;6.322;2023-04-24T08:05:16;9.00;99.90
53152;DHT22;39234;53.158;6.322;2023-04-24T08:07:42;9.30;99.90
53152;DHT22;39234;53.158;6.322;2023-04-24T08:10:10;9.60;99.90
53152;DHT22;39234;53.158;6.322;2023-04-24T08:12:37;9.40;99.90
53152;DHT22;39234;53.158;6.322;2023-04-24T08:15:04;9.20;99.90
53152;DHT22;39234;53.158;6.322;2023-04-24T08:17:30;9.10;99.90
53152;DHT22;39234;53.158;6.322;2023-04-24T08:19:56;9.00;99.90
53152;DHT22;39234;53.158;6.322;2023-04-24T08:22:27;10.70;99.90
53152;DHT22;39234;53.158;6.322;2023-04-24T08:24:53;10.60;99.90
53152;DHT22;39234;53.158;6.322;2023-04-24T08:27:19;9.40;99.90
53152;DHT22;39234;53.158;6.322;2023-04-24T08:29:45;9.10;99.90
53152;DHT22;39234;53.158;6.322;2023-04-24T08:32:11;9.00;99.90
53152;DHT22;39234;53.158;6.322;2023-04-24T08:34:37;9.20;99.90
53152;DHT22;39234;53.158;6.322;2023-04-24T08:37:02;9.10;99.90
53152;DHT22;39234;53.158;6.322;2023-04-24T08:39:28;9.10;99.90
53152;DHT22;39234;53.158;6.322;2023-04-24T08:41:55;9.10;99.90
53152;DHT22;39234;53.158;6.322;2023-04-24T08:44:21;9.20;99.90
53152;DHT22;39234;53.158;6.322;2023-04-24T08:46:50;9.00;99.90
53152;DHT22;39234;53.158;6.322;2023-04-24T08:49:17;8.90;99.90
53152;DHT22;39234;53.158;6.322;2023-04-24T08:51:44;9.20;99.90
53152;DHT22;39234;53.158;6.322;2023-04-24T08:54:12;9.00;99.90
53152;DHT22;39234;53.158;6.322;2023-04-24T08:56:38;9.20;99.90
53152;DHT22;39234;53.158;6.322;2023-04-24T08:59:06;9.10;99.90
53152;DHT22;39234;53.158;6.322;2023-04-24T09:01:32;9.10;99.90
53152;DHT22;39234;53.158;6.322;2023-04-24T09:04:03;9.00;99.90
53152;DHT22;39234;53.158;6.322;2023-04-24T09:06:30;9.10;99.90
53152;DHT22;39234;53.158;6.322;2023-04-24T09:08:59;9.20;99.90
53152;DHT22;39234;53.158;6.322;2023-04-24T09:11:26;9.30;99.90
53152;DHT22;39234;53.158;6.322;2023-04-24T09:13:53;9.40;99.90
53152;DHT22;39234;53.158;6.322;2023-04-24T09:16:20;9.40;99.90
53152;DHT22;39234;53.158;6.322;2023-04-24T09:18:46;9.50;99.90
53152;DHT22;39234;53.158;6.322;2023-04-24T09:21:12;9.30;99.90
53152;DHT22;39234;53.158;6.322;2023-04-24T09:23:38;9.50;99.90
53152;DHT22;39234;53.158;6.322;2023-04-24T09:26:05;9.50;99.90
53152;DHT22;39234;53.158;6.322;2023-04-24T09:28:33;9.40;99.90
53152;DHT22;39234;53.158;6.322;2023-04-24T09:31:14;9.40;99.90
53152;DHT22;39234;53.158;6.322;2023-04-24T09:34:04;9.20;99.90
53152;DHT22;39234;53.158;6.322;2023-04-24T09:36:52;9.20;99.90
53152;DHT22;39234;53.158;6.322;2023-04-24T09:39:18;9.30;99.90
53152;DHT22;39234;53.158;6.322;2023-04-24T09:41:49;9.30;99.90
53152;DHT22;39234;53.158;6.322;2023-04-24T09:44:20;9.30;99.90
53152;DHT22;39234;53.158;6.322;2023-04-24T09:46:56;9.40;99.90
53152;DHT22;39234;53.158;6.322;2023-04-24T09:49:24;9.30;99.90
53152;DHT22;39234;53.158;6.322;2023-04-24T09:51:50;9.50;99.90
53152;DHT22;39234;53.158;6.322;2023-04-24T09:54:18;9.80;99.90
53152;DHT22;39234;53.158;6.322;2023-04-24T09:56:48;9.80;99.90
53152;DHT22;39234;53.158;6.322;2023-04-24T09:59:16;9.90;99.90
53152;DHT22;39234;53.158;6.322;2023-04-24T10:01:42;9.90;99.90
53152;DHT22;39234;53.158;6.322;2023-04-24T10:04:39;10.10;99.90
53152;DHT22;39234;53.158;6.322;2023-04-24T10:07:05;10.10;99.90
53152;DHT22;39234;53.158;6.322;2023-04-24T10:09:32;10.20;99.90
53152;DHT22;39234;53.158;6.322;2023-04-24T10:11:59;10.20;99.90
53152;DHT22;39234;53.158;6.322;2023-04-24T10:14:27;10.20;99.90
53152;DHT22;39234;53.158;6.322;2023-04-24T10:16:54;10.10;99.90
53152;DHT22;39234;53.158;6.322;2023-04-24T10:19:20;10.20;99.90
53152;DHT22;39234;53.158;6.322;2023-04-24T10:21:46;10.30;99.90
53152;DHT22;39234;53.158;6.322;2023-04-24T10:24:17;10.30;99.90
53152;DHT22;39234;53.158;6.322;2023-04-24T10:26:45;10.30;99.90
53152;DHT22;39234;53.158;6.322;2023-04-24T10:29:12;10.20;99.90
53152;DHT22;39234;53.158;6.322;2023-04-24T10:31:38;10.30;99.90
53152;DHT22;39234;53.158;6.322;2023-04-24T10:34:05;11.00;99.90
53152;DHT22;39234;53.158;6.322;2023-04-24T10:36:33;10.20;99.90
53152;DHT22;39234;53.158;6.322;2023-04-24T10:39:02;10.10;99.90
53152;DHT22;39234;53.158;6.322;2023-04-24T10:41:30;10.00;99.90
53152;DHT22;39234;53.158;6.322;2023-04-24T10:46:32;10.30;99.90
53152;DHT22;39234;53.158;6.322;2023-04-24T10:48:58;10.30;99.90
53152;DHT22;39234;53.158;6.322;2023-04-24T10:51:26;10.30;99.90
53152;DHT22;39234;53.158;6.322;2023-04-24T10:59:52;10.20;99.90
53152;DHT22;39234;53.158;6.322;2023-04-24T11:02:39;10.20;99.90
53152;DHT22;39234;53.158;6.322;2023-04-24T11:05:06;10.40;99.90
53152;DHT22;39234;53.158;6.322;2023-04-24T11:08:10;10.30;99.90
53152;DHT22;39234;53.158;6.322;2023-04-24T11:13:31;10.30;99.90
53152;DHT22;39234;53.158;6.322;2023-04-24T11:18:51;10.20;99.90
53152;DHT22;39234;53.158;6.322;2023-04-24T11:21:20;10.30;99.90
53152;DHT22;39234;53.158;6.322;2023-04-24T11:23:46;10.40;99.90
53152;DHT22;39234;53.158;6.322;2023-04-24T11:26:21;10.30;99.90
53152;DHT22;39234;53.158;6.322;2023-04-24T11:28:49;10.40;99.90
53152;DHT22;39234;53.158;6.322;2023-04-24T11:31:34;10.50;99.90
53152;DHT22;39234;53.158;6.322;2023-04-24T11:34:09;10.50;99.90
53152;DHT22;39234;53.158;6.322;2023-04-24T11:36:36;10.30;99.90
53152;DHT22;39234;53.158;6.322;2023-04-24T11:39:02;10.20;99.90
53152;DHT22;39234;53.158;6.322;2023-04-24T11:41:28;10.00;99.90
53152;DHT22;39234;53.158;6.322;2023-04-24T11:43:55;9.90;99.90
53152;DHT22;39234;53.158;6.322;2023-04-24T11:46:22;9.80;99.90
53152;DHT22;39234;53.158;6.322;2023-04-24T11:48:47;9.50;99.90
53152;DHT22;39234;53.158;6.322;2023-04-24T11:51:14;9.50;99.90
53152;DHT22;39234;53.158;6.322;2023-04-24T11:53:40;9.40;99.90
53152;DHT22;39234;53.158;6.322;2023-04-24T11:56:05;9.30;99.90
53152;DHT22;39234;53.158;6.322;2023-04-24T11:58:38;9.20;99.90
53152;DHT22;39234;53.158;6.322;2023-04-24T12:01:05;9.40;99.90
53152;DHT22;39234;53.158;6.322;2023-04-24T12:03:31;9.30;99.90
53152;DHT22;39234;53.158;6.322;2023-04-24T12:06:10;9.60;99.90
53152;DHT22;39234;53.158;6.322;2023-04-24T12:08:37;9.90;99.90
53152;DHT22;39234;53.158;6.322;2023-04-24T12:11:05;9.90;99.90
53152;DHT22;39234;53.158;6.322;2023-04-24T12:13:35;10.10;99.90
53152;DHT22;39234;53.158;6.322;2023-04-24T12:16:03;10.10;99.90
53152;DHT22;39234;53.158;6.322;2023-04-24T12:18:30;10.30;99.90
53152;DHT22;39234;53.158;6.322;2023-04-24T12:21:15;11.00;99.90
53152;DHT22;39234;53.158;6.322;2023-04-24T12:23:43;10.20;99.90
53152;DHT22;39234;53.158;6.322;2023-04-24T12:26:09;10.20;99.90
53152;DHT22;39234;53.158;6.322;2023-04-24T12:28:36;10.40;99.90
53152;DHT22;39234;53.158;6.322;2023-04-24T12:31:02;10.20;99.90
53152;DHT22;39234;53.158;6.322;2023-04-24T12:33:32;10.10;99.90
53152;DHT22;39234;53.158;6.322;2023-04-24T12:35:59;10.20;99.90
53152;DHT22;39234;53.158;6.322;2023-04-24T12:38:26;10.20;99.90
53152;DHT22;39234;53.158;6.322;2023-04-24T12:41:10;10.30;99.90
53152;DHT22;39234;53.158;6.322;2023-04-24T12:43:36;10.40;99.90
53152;DHT22;39234;53.158;6.322;2023-04-24T12:46:03;10.50;99.90
53152;DHT22;39234;53.158;6.322;2023-04-24T12:48:29;10.20;99.90
53152;DHT22;39234;53.158;6.322;2023-04-24T12:50:57;10.20;99.90
53152;DHT22;39234;53.158;6.322;2023-04-24T12:53:26;10.10;99.90
53152;DHT22;39234;53.158;6.322;2023-04-24T12:55:52;10.30;99.90
53152;DHT22;39234;53.158;6.322;2023-04-24T12:58:21;9.80;99.90
53152;DHT22;39234;53.158;6.322;2023-04-24T13:00:47;9.90;99.90
53152;DHT22;39234;53.158;6.322;2023-04-24T13:03:13;9.70;99.90
53152;DHT22;39234;53.158;6.322;2023-04-24T13:05:39;9.90;99.90
53152;DHT22;39234;53.158;6.322;2023-04-24T13:08:05;9.90;99.90
53152;DHT22;39234;53.158;6.322;2023-04-24T13:10:30;10.00;99.90
53152;DHT22;39234;53.158;6.322;2023-04-24T13:12:56;10.00;99.90
53152;DHT22;39234;53.158;6.322;2023-04-24T13:15:22;10.10;99.90
53152;DHT22;39234;53.158;6.322;2023-04-24T13:17:48;10.00;99.90
53152;DHT22;39234;53.158;6.322;2023-04-24T13:20:14;10.40;99.90
53152;DHT22;39234;53.158;6.322;2023-04-24T13:22:39;10.20;99.90
53152;DHT22;39234;53.158;6.322;2023-04-24T13:25:06;10.20;99.90
53152;DHT22;39234;53.158;6.322;2023-04-24T13:27:32;10.20;99.90
53152;DHT22;39234;53.158;6.322;2023-04-24T13:29:58;10.40;99.90
53152;DHT22;39234;53.158;6.322;2023-04-24T13:32:24;10.40;99.90
53152;DHT22;39234;53.158;6.322;2023-04-24T13:34:50;10.20;99.90
53152;DHT22;39234;53.158;6.322;2023-04-24T13:37:16;8.40;99.90
53152;DHT22;39234;53.158;6.322;2023-04-24T13:39:42;10.20;99.90
53152;DHT22;39234;53.158;6.322;2023-04-24T13:42:08;10.20;99.90
53152;DHT22;39234;53.158;6.322;2023-04-24T13:44:33;10.60;99.90
53152;DHT22;39234;53.158;6.322;2023-04-24T13:46:59;9.90;99.90
53152;DHT22;39234;53.158;6.322;2023-04-24T13:49:26;10.00;99.90
53152;DHT22;39234;53.158;6.322;2023-04-24T13:51:53;11.00;99.90
53152;DHT22;39234;53.158;6.322;2023-04-24T13:54:19;9.70;99.90
53152;DHT22;39234;53.158;6.322;2023-04-24T13:56:45;9.60;99.90
53152;DHT22;39234;53.158;6.322;2023-04-24T13:59:12;9.70;99.90
53152;DHT22;39234;53.158;6.322;2023-04-24T14:01:38;10.60;99.90
53152;DHT22;39234;53.158;6.322;2023-04-24T14:04:04;9.20;99.90
53152;DHT22;39234;53.158;6.322;2023-04-24T14:06:30;9.30;99.90
53152;DHT22;39234;53.158;6.322;2023-04-24T14:08:57;9.10;99.90
53152;DHT22;39234;53.158;6.322;2023-04-24T14:11:22;9.10;99.90
53152;DHT22;39234;53.158;6.322;2023-04-24T14:13:49;8.90;99.90
53152;DHT22;39234;53.158;6.322;2023-04-24T14:16:15;9.00;99.90
53152;DHT22;39234;53.158;6.322;2023-04-24T14:18:40;9.00;99.90
53152;DHT22;39234;53.158;6.322;2023-04-24T14:21:06;9.20;99.90
53152;DHT22;39234;53.158;6.322;2023-04-24T14:23:33;9.30;99.90
53152;DHT22;39234;53.158;6.322;2023-04-24T14:25:58;9.50;99.90
53152;DHT22;39234;53.158;6.322;2023-04-24T14:28:24;9.40;99.90
53152;DHT22;39234;53.158;6.322;2023-04-24T14:30:52;9.60;99.90
53152;DHT22;39234;53.158;6.322;2023-04-24T14:33:18;9.60;99.90
53152;DHT22;39234;53.158;6.322;2023-04-24T14:35:44;9.40;99.90
53152;DHT22;39234;53.158;6.322;2023-04-24T14:38:10;10.80;99.90
53152;DHT22;39234;53.158;6.322;2023-04-24T14:40:37;9.20;99.90
53152;DHT22;39234;53.158;6.322;2023-04-24T14:43:03;9.20;99.90
53152;DHT22;39234;53.158;6.322;2023-04-24T14:45:29;9.40;99.90
53152;DHT22;39234;53.158;6.322;2023-04-24T14:47:55;9.40;99.90
53152;DHT22;39234;53.158;6.322;2023-04-24T14:50:21;7.60;99.90
53152;DHT22;39234;53.158;6.322;2023-04-24T14:52:47;9.20;99.90
53152;DHT22;39234;53.158;6.322;2023-04-24T14:55:13;9.30;99.90
53152;DHT22;39234;53.158;6.322;2023-04-24T14:57:39;9.30;99.90
53152;DHT22;39234;53.158;6.322;2023-04-24T15:00:06;9.00;99.90
53152;DHT22;39234;53.158;6.322;2023-04-24T15:02:34;9.00;99.90
53152;DHT22;39234;53.158;6.322;2023-04-24T15:05:02;9.10;99.90
53152;DHT22;39234;53.158;6.322;2023-04-24T15:07:29;9.10;99.90
53152;DHT22;39234;53.158;6.322;2023-04-24T15:09:56;9.30;99.90
53152;DHT22;39234;53.158;6.322;2023-04-24T15:12:22;9.00;99.90
53152;DHT22;39234;53.158;6.322;2023-04-24T15:14:48;9.10;99.90
53152;DHT22;39234;53.158;6.322;2023-04-24T15:17:14;9.10;99.90
53152;DHT22;39234;53.158;6.322;2023-04-24T15:19:40;9.00;99.90
53152;DHT22;39234;53.158;6.322;2023-04-24T15:22:06;9.30;99.90
53152;DHT22;39234;53.158;6.322;2023-04-24T15:24:31;9.10;99.90
53152;DHT22;39234;53.158;6.322;2023-04-24T15:26:58;9.20;99.90
53152;DHT22;39234;53.158;6.322;2023-04-24T15:29:24;9.30;99.90
53152;DHT22;39234;53.158;6.322;2023-04-24T15:31:50;9.40;99.90
53152;DHT22;39234;53.158;6.322;2023-04-24T15:34:16;9.10;99.90
53152;DHT22;39234;53.158;6.322;2023-04-24T15:36:42;9.00;99.90
53152;DHT22;39234;53.158;6.322;2023-04-24T15:39:07;9.00;99.90
53152;DHT22;39234;53.158;6.322;2023-04-24T15:41:34;9.10;99.90
53152;DHT22;39234;53.158;6.322;2023-04-24T15:43:59;9.20;99.90
53152;DHT22;39234;53.158;6.322;2023-04-24T15:46:25;9.10;99.90
53152;DHT22;39234;53.158;6.322;2023-04-24T15:48:51;9.10;99.90
53152;DHT22;39234;53.158;6.322;2023-04-24T15:51:17;10.20;99.90
53152;DHT22;39234;53.158;6.322;2023-04-24T15:53:42;9.00;99.90
53152;DHT22;39234;53.158;6.322;2023-04-24T15:56:09;8.90;99.90